sensor_id;sensor_type;location;lat;lon;timestamp;P1;durP1;ratioP1;P2;durP2;ratioP2
20065;SDS011;10193;48.884;9.182;2024-01-06T00:01:10;2.80;;;2.10;;
20065;SDS011;10193;48.884;9.182;2024-01-06T00:03:39;2.15;;;1.90;;
20065;SDS011;10193;48.884;9.182;2024-01-06T00:06:06;2.80;;;2.00;;
20065;SDS011;10193;48.884;9.182;2024-01-06T00:08:32;2.40;;;2.15;;
20065;SDS011;10193;48.884;9.182;2024-01-06T00:10:59;2.40;;;2.20;;
20065;SDS011;10193;48.884;9.182;2024-01-06T00:13:27;2.47;;;2.15;;
20065;SDS011;10193;48.884;9.182;2024-01-06T00:15:54;2.70;;;2.30;;
20065;SDS011;10193;48.884;9.182;2024-01-06T00:18:21;2.80;;;2.33;;
20065;SDS011;10193;48.884;9.182;2024-01-06T00:20:49;2.78;;;2.13;;
20065;SDS011;10193;48.884;9.182;2024-01-06T00:23:15;2.55;;;2.00;;
20065;SDS011;10193;48.884;9.182;2024-01-06T00:25:42;3.30;;;2.30;;
20065;SDS011;10193;48.884;9.182;2024-01-06T00:28:09;2.78;;;2.10;;
20065;SDS011;10193;48.884;9.182;2024-01-06T00:30:35;2.47;;;1.88;;
20065;SDS011;10193;48.884;9.182;2024-01-06T00:33:02;2.53;;;2.10;;
20065;SDS011;10193;48.884;9.182;2024-01-06T00:35:29;2.35;;;2.15;;
20065;SDS011;10193;48.884;9.182;2024-01-06T00:37:57;2.63;;;1.95;;
20065;SDS011;10193;48.884;9.182;2024-01-06T00:40:25;3.00;;;2.13;;
20065;SDS011;10193;48.884;9.182;2024-01-06T00:42:52;2.30;;;2.10;;
20065;SDS011;10193;48.884;9.182;2024-01-06T00:45:18;2.92;;;2.33;;
20065;SDS011;10193;48.884;9.182;2024-01-06T00:47:45;2.13;;;1.92;;
20065;SDS011;10193;48.884;9.182;2024-01-06T00:50:12;3.13;;;2.25;;
20065;SDS011;10193;48.884;9.182;2024-01-06T00:52:39;2.50;;;1.88;;
20065;SDS011;10193;48.884;9.182;2024-01-06T00:55:07;2.72;;;2.20;;
20065;SDS011;10193;48.884;9.182;2024-01-06T00:57:34;2.33;;;2.08;;
20065;SDS011;10193;48.884;9.182;2024-01-06T01:00:01;2.72;;;1.92;;
20065;SDS011;10193;48.884;9.182;2024-01-06T01:02:28;2.20;;;1.92;;
20065;SDS011;10193;48.884;9.182;2024-01-06T01:04:55;3.47;;;1.95;;
20065;SDS011;10193;48.884;9.182;2024-01-06T01:07:22;1.80;;;1.63;;
20065;SDS011;10193;48.884;9.182;2024-01-06T01:09:49;3.22;;;1.73;;
20065;SDS011;10193;48.884;9.182;2024-01-06T01:12:17;2.47;;;1.70;;
20065;SDS011;10193;48.884;9.182;2024-01-06T01:14:44;1.85;;;1.70;;
20065;SDS011;10193;48.884;9.182;2024-01-06T01:17:11;1.70;;;1.60;;
20065;SDS011;10193;48.884;9.182;2024-01-06T01:19:37;2.72;;;1.60;;
20065;SDS011;10193;48.884;9.182;2024-01-06T01:22:04;1.88;;;1.67;;
20065;SDS011;10193;48.884;9.182;2024-01-06T01:24:31;2.00;;;1.77;;
20065;SDS011;10193;48.884;9.182;2024-01-06T01:26:58;1.45;;;1.30;;
20065;SDS011;10193;48.884;9.182;2024-01-06T01:29:25;1.83;;;1.65;;
20065;SDS011;10193;48.884;9.182;2024-01-06T01:31:52;2.58;;;1.55;;
20065;SDS011;10193;48.884;9.182;2024-01-06T01:34:19;1.77;;;1.27;;
20065;SDS011;10193;48.884;9.182;2024-01-06T01:36:45;1.38;;;1.27;;
20065;SDS011;10193;48.884;9.182;2024-01-06T01:39:12;1.98;;;1.30;;
20065;SDS011;10193;48.884;9.182;2024-01-06T01:41:39;1.00;;;1.00;;
20065;SDS011;10193;48.884;9.182;2024-01-06T01:44:07;1.88;;;1.42;;
20065;SDS011;10193;48.884;9.182;2024-01-06T01:46:35;2.70;;;1.20;;
20065;SDS011;10193;48.884;9.182;2024-01-06T01:49:03;1.83;;;1.27;;
20065;SDS011;10193;48.884;9.182;2024-01-06T01:51:30;1.30;;;1.15;;
20065;SDS011;10193;48.884;9.182;2024-01-06T01:54:00;1.08;;;0.95;;
20065;SDS011;10193;48.884;9.182;2024-01-06T01:56:27;1.15;;;1.05;;
20065;SDS011;10193;48.884;9.182;2024-01-06T01:58:59;1.17;;;1.00;;
20065;SDS011;10193;48.884;9.182;2024-01-06T02:01:26;1.65;;;1.42;;
20065;SDS011;10193;48.884;9.182;2024-01-06T02:03:54;1.10;;;1.00;;
20065;SDS011;10193;48.884;9.182;2024-01-06T02:06:21;2.10;;;1.00;;
20065;SDS011;10193;48.884;9.182;2024-01-06T02:08:48;4.55;;;1.40;;
20065;SDS011;10193;48.884;9.182;2024-01-06T02:11:14;1.67;;;0.90;;
20065;SDS011;10193;48.884;9.182;2024-01-06T02:13:41;1.20;;;1.10;;
20065;SDS011;10193;48.884;9.182;2024-01-06T02:16:08;1.38;;;1.10;;
20065;SDS011;10193;48.884;9.182;2024-01-06T02:18:34;2.30;;;1.00;;
20065;SDS011;10193;48.884;9.182;2024-01-06T02:21:02;1.75;;;1.08;;
20065;SDS011;10193;48.884;9.182;2024-01-06T02:23:31;1.42;;;1.20;;
20065;SDS011;10193;48.884;9.182;2024-01-06T02:26:00;2.75;;;1.05;;
20065;SDS011;10193;48.884;9.182;2024-01-06T02:28:27;1.52;;;1.02;;
20065;SDS011;10193;48.884;9.182;2024-01-06T02:30:53;1.83;;;0.98;;
20065;SDS011;10193;48.884;9.182;2024-01-06T02:33:20;1.85;;;1.00;;
20065;SDS011;10193;48.884;9.182;2024-01-06T02:35:49;2.40;;;1.15;;
20065;SDS011;10193;48.884;9.182;2024-01-06T02:38:15;1.77;;;1.00;;
20065;SDS011;10193;48.884;9.182;2024-01-06T02:40:43;1.55;;;1.20;;
20065;SDS011;10193;48.884;9.182;2024-01-06T02:43:10;1.73;;;1.20;;
20065;SDS011;10193;48.884;9.182;2024-01-06T02:45:37;3.90;;;1.40;;
20065;SDS011;10193;48.884;9.182;2024-01-06T02:48:03;2.65;;;1.40;;
20065;SDS011;10193;48.884;9.182;2024-01-06T02:50:30;2.72;;;1.35;;
20065;SDS011;10193;48.884;9.182;2024-01-06T02:52:57;2.17;;;1.20;;
20065;SDS011;10193;48.884;9.182;2024-01-06T02:55:24;2.47;;;1.38;;
20065;SDS011;10193;48.884;9.182;2024-01-06T02:57:52;1.52;;;1.08;;
20065;SDS011;10193;48.884;9.182;2024-01-06T03:00:18;1.73;;;1.33;;
20065;SDS011;10193;48.884;9.182;2024-01-06T03:02:45;1.88;;;1.20;;
20065;SDS011;10193;48.884;9.182;2024-01-06T03:05:12;2.97;;;1.40;;
20065;SDS011;10193;48.884;9.182;2024-01-06T03:07:39;2.67;;;1.08;;
20065;SDS011;10193;48.884;9.182;2024-01-06T03:10:05;1.48;;;0.93;;
20065;SDS011;10193;48.884;9.182;2024-01-06T03:12:32;2.22;;;1.27;;
20065;SDS011;10193;48.884;9.182;2024-01-06T03:15:00;4.45;;;1.42;;
20065;SDS011;10193;48.884;9.182;2024-01-06T03:17:27;1.77;;;1.00;;
20065;SDS011;10193;48.884;9.182;2024-01-06T03:19:54;2.23;;;1.10;;
20065;SDS011;10193;48.884;9.182;2024-01-06T03:22:20;1.67;;;1.00;;
20065;SDS011;10193;48.884;9.182;2024-01-06T03:24:47;1.48;;;1.10;;
20065;SDS011;10193;48.884;9.182;2024-01-06T03:27:14;1.80;;;1.13;;
20065;SDS011;10193;48.884;9.182;2024-01-06T03:29:41;1.70;;;1.00;;
20065;SDS011;10193;48.884;9.182;2024-01-06T03:32:09;1.20;;;0.90;;
20065;SDS011;10193;48.884;9.182;2024-01-06T03:34:35;1.48;;;1.02;;
20065;SDS011;10193;48.884;9.182;2024-01-06T03:37:02;2.03;;;0.95;;
20065;SDS011;10193;48.884;9.182;2024-01-06T03:39:29;1.48;;;1.00;;
20065;SDS011;10193;48.884;9.182;2024-01-06T03:41:56;1.55;;;0.80;;
20065;SDS011;10193;48.884;9.182;2024-01-06T03:44:23;2.83;;;1.30;;
20065;SDS011;10193;48.884;9.182;2024-01-06T03:46:50;1.80;;;1.10;;
20065;SDS011;10193;48.884;9.182;2024-01-06T03:49:18;1.38;;;0.98;;
20065;SDS011;10193;48.884;9.182;2024-01-06T03:51:45;1.88;;;0.80;;
20065;SDS011;10193;48.884;9.182;2024-01-06T03:54:12;2.50;;;0.80;;
20065;SDS011;10193;48.884;9.182;2024-01-06T03:56:39;2.58;;;0.90;;
20065;SDS011;10193;48.884;9.182;2024-01-06T03:59:05;2.72;;;1.10;;
20065;SDS011;10193;48.884;9.182;2024-01-06T04:01:32;0.82;;;0.68;;
20065;SDS011;10193;48.884;9.182;2024-01-06T04:04:01;1.75;;;0.80;;
20065;SDS011;10193;48.884;9.182;2024-01-06T04:06:30;2.53;;;1.10;;
20065;SDS011;10193;48.884;9.182;2024-01-06T04:08:57;1.88;;;0.93;;
20065;SDS011;10193;48.884;9.182;2024-01-06T04:11:24;1.65;;;0.75;;
20065;SDS011;10193;48.884;9.182;2024-01-06T04:13:50;1.48;;;1.00;;
20065;SDS011;10193;48.884;9.182;2024-01-06T04:16:16;2.03;;;0.85;;
20065;SDS011;10193;48.884;9.182;2024-01-06T04:18:43;2.08;;;0.90;;
20065;SDS011;10193;48.884;9.182;2024-01-06T04:21:10;1.60;;;0.95;;
20065;SDS011;10193;48.884;9.182;2024-01-06T04:23:38;2.75;;;0.75;;
20065;SDS011;10193;48.884;9.182;2024-01-06T04:26:04;2.20;;;0.90;;
20065;SDS011;10193;48.884;9.182;2024-01-06T04:28:32;1.10;;;0.82;;
20065;SDS011;10193;48.884;9.182;2024-01-06T04:30:58;1.27;;;0.82;;
20065;SDS011;10193;48.884;9.182;2024-01-06T04:33:25;0.90;;;0.80;;
20065;SDS011;10193;48.884;9.182;2024-01-06T04:35:52;3.75;;;0.88;;
20065;SDS011;10193;48.884;9.182;2024-01-06T04:38:18;1.50;;;0.80;;
20065;SDS011;10193;48.884;9.182;2024-01-06T04:40:46;1.25;;;0.70;;
20065;SDS011;10193;48.884;9.182;2024-01-06T04:43:13;1.75;;;0.80;;
20065;SDS011;10193;48.884;9.182;2024-01-06T04:45:40;2.72;;;1.00;;
20065;SDS011;10193;48.884;9.182;2024-01-06T04:48:07;1.85;;;1.08;;
20065;SDS011;10193;48.884;9.182;2024-01-06T04:50:33;2.40;;;0.90;;
20065;SDS011;10193;48.884;9.182;2024-01-06T04:53:00;1.45;;;0.88;;
20065;SDS011;10193;48.884;9.182;2024-01-06T04:55:26;1.75;;;0.90;;
20065;SDS011;10193;48.884;9.182;2024-01-06T04:57:55;3.78;;;1.17;;
20065;SDS011;10193;48.884;9.182;2024-01-06T05:00:21;1.48;;;0.85;;
20065;SDS011;10193;48.884;9.182;2024-01-06T05:02:49;1.92;;;1.10;;
20065;SDS011;10193;48.884;9.182;2024-01-06T05:05:15;1.90;;;1.00;;
20065;SDS011;10193;48.884;9.182;2024-01-06T05:07:42;2.47;;;0.90;;
20065;SDS011;10193;48.884;9.182;2024-01-06T05:10:09;1.65;;;0.95;;
20065;SDS011;10193;48.884;9.182;2024-01-06T05:12:35;1.45;;;0.98;;
20065;SDS011;10193;48.884;9.182;2024-01-06T05:15:04;2.38;;;1.25;;
20065;SDS011;10193;48.884;9.182;2024-01-06T05:17:31;1.70;;;1.00;;
20065;SDS011;10193;48.884;9.182;2024-01-06T05:19:57;2.67;;;1.20;;
20065;SDS011;10193;48.884;9.182;2024-01-06T05:22:25;2.30;;;1.20;;
20065;SDS011;10193;48.884;9.182;2024-01-06T05:24:52;1.10;;;0.80;;
20065;SDS011;10193;48.884;9.182;2024-01-06T05:27:19;3.28;;;1.23;;
20065;SDS011;10193;48.884;9.182;2024-01-06T05:29:45;2.33;;;1.35;;
20065;SDS011;10193;48.884;9.182;2024-01-06T05:32:15;2.13;;;1.10;;
20065;SDS011;10193;48.884;9.182;2024-01-06T05:34:42;2.10;;;1.13;;
20065;SDS011;10193;48.884;9.182;2024-01-06T05:37:09;2.42;;;0.93;;
20065;SDS011;10193;48.884;9.182;2024-01-06T05:39:37;1.98;;;1.00;;
20065;SDS011;10193;48.884;9.182;2024-01-06T05:42:04;1.10;;;1.00;;
20065;SDS011;10193;48.884;9.182;2024-01-06T05:44:31;2.15;;;1.05;;
20065;SDS011;10193;48.884;9.182;2024-01-06T05:47:00;1.65;;;1.00;;
20065;SDS011;10193;48.884;9.182;2024-01-06T05:49:28;1.05;;;0.98;;
20065;SDS011;10193;48.884;9.182;2024-01-06T05:51:55;1.63;;;1.25;;
20065;SDS011;10193;48.884;9.182;2024-01-06T05:54:22;3.28;;;1.25;;
20065;SDS011;10193;48.884;9.182;2024-01-06T05:56:48;2.03;;;1.23;;
20065;SDS011;10193;48.884;9.182;2024-01-06T05:59:15;1.25;;;0.95;;
20065;SDS011;10193;48.884;9.182;2024-01-06T06:01:42;2.17;;;0.98;;
20065;SDS011;10193;48.884;9.182;2024-01-06T06:04:09;2.73;;;1.03;;
20065;SDS011;10193;48.884;9.182;2024-01-06T06:06:38;1.65;;;1.02;;
20065;SDS011;10193;48.884;9.182;2024-01-06T06:09:05;1.00;;;0.90;;
20065;SDS011;10193;48.884;9.182;2024-01-06T06:11:32;1.90;;;1.07;;
20065;SDS011;10193;48.884;9.182;2024-01-06T06:13:58;1.27;;;1.10;;
20065;SDS011;10193;48.884;9.182;2024-01-06T06:16:27;1.55;;;1.05;;
20065;SDS011;10193;48.884;9.182;2024-01-06T06:18:54;1.30;;;1.20;;
20065;SDS011;10193;48.884;9.182;2024-01-06T06:21:21;1.70;;;1.20;;
20065;SDS011;10193;48.884;9.182;2024-01-06T06:23:49;1.33;;;1.23;;
20065;SDS011;10193;48.884;9.182;2024-01-06T06:26:16;2.42;;;0.98;;
20065;SDS011;10193;48.884;9.182;2024-01-06T06:28:42;1.33;;;1.00;;
20065;SDS011;10193;48.884;9.182;2024-01-06T06:31:09;1.55;;;1.15;;
20065;SDS011;10193;48.884;9.182;2024-01-06T06:33:36;1.23;;;1.10;;
20065;SDS011;10193;48.884;9.182;2024-01-06T06:36:04;1.27;;;1.10;;
20065;SDS011;10193;48.884;9.182;2024-01-06T06:38:31;2.17;;;1.42;;
20065;SDS011;10193;48.884;9.182;2024-01-06T06:40:59;1.55;;;1.15;;
20065;SDS011;10193;48.884;9.182;2024-01-06T06:43:25;1.38;;;1.27;;
20065;SDS011;10193;48.884;9.182;2024-01-06T06:45:52;1.27;;;1.17;;
20065;SDS011;10193;48.884;9.182;2024-01-06T06:48:20;1.38;;;1.27;;
20065;SDS011;10193;48.884;9.182;2024-01-06T06:50:47;1.55;;;1.40;;
20065;SDS011;10193;48.884;9.182;2024-01-06T06:53:13;1.27;;;1.17;;
20065;SDS011;10193;48.884;9.182;2024-01-06T06:55:40;1.77;;;1.17;;
20065;SDS011;10193;48.884;9.182;2024-01-06T06:58:08;1.77;;;1.55;;
20065;SDS011;10193;48.884;9.182;2024-01-06T07:00:35;1.60;;;1.50;;
20065;SDS011;10193;48.884;9.182;2024-01-06T07:03:02;1.52;;;1.42;;
20065;SDS011;10193;48.884;9.182;2024-01-06T07:05:28;2.30;;;1.60;;
20065;SDS011;10193;48.884;9.182;2024-01-06T07:07:55;2.03;;;1.50;;
20065;SDS011;10193;48.884;9.182;2024-01-06T07:10:22;2.30;;;1.52;;
20065;SDS011;10193;48.884;9.182;2024-01-06T07:12:49;1.60;;;1.50;;
20065;SDS011;10193;48.884;9.182;2024-01-06T07:15:17;1.92;;;1.58;;
20065;SDS011;10193;48.884;9.182;2024-01-06T07:17:43;1.70;;;1.60;;
20065;SDS011;10193;48.884;9.182;2024-01-06T07:20:10;2.22;;;2.03;;
20065;SDS011;10193;48.884;9.182;2024-01-06T07:22:37;2.30;;;2.10;;
20065;SDS011;10193;48.884;9.182;2024-01-06T07:25:04;3.17;;;2.55;;
20065;SDS011;10193;48.884;9.182;2024-01-06T07:27:32;3.03;;;2.72;;
20065;SDS011;10193;48.884;9.182;2024-01-06T07:29:59;3.30;;;3.00;;
20065;SDS011;10193;48.884;9.182;2024-01-06T07:32:27;3.05;;;2.70;;
20065;SDS011;10193;48.884;9.182;2024-01-06T07:34:53;2.88;;;2.67;;
20065;SDS011;10193;48.884;9.182;2024-01-06T07:37:20;3.03;;;2.78;;
20065;SDS011;10193;48.884;9.182;2024-01-06T07:39:47;2.38;;;2.17;;
20065;SDS011;10193;48.884;9.182;2024-01-06T07:42:14;2.30;;;2.10;;
20065;SDS011;10193;48.884;9.182;2024-01-06T07:44:40;2.00;;;1.90;;
20065;SDS011;10193;48.884;9.182;2024-01-06T07:47:07;2.22;;;1.60;;
20065;SDS011;10193;48.884;9.182;2024-01-06T07:49:35;2.08;;;1.65;;
20065;SDS011;10193;48.884;9.182;2024-01-06T07:52:02;1.70;;;1.60;;
20065;SDS011;10193;48.884;9.182;2024-01-06T07:54:29;1.63;;;1.52;;
20065;SDS011;10193;48.884;9.182;2024-01-06T07:56:56;1.45;;;1.35;;
20065;SDS011;10193;48.884;9.182;2024-01-06T07:59:24;1.70;;;1.60;;
20065;SDS011;10193;48.884;9.182;2024-01-06T08:01:50;2.72;;;1.70;;
20065;SDS011;10193;48.884;9.182;2024-01-06T08:04:17;1.98;;;1.52;;
20065;SDS011;10193;48.884;9.182;2024-01-06T08:06:45;1.70;;;1.60;;
20065;SDS011;10193;48.884;9.182;2024-01-06T08:09:12;2.08;;;1.98;;
20065;SDS011;10193;48.884;9.182;2024-01-06T08:11:39;1.80;;;1.70;;
20065;SDS011;10193;48.884;9.182;2024-01-06T08:14:07;2.17;;;1.80;;
20065;SDS011;10193;48.884;9.182;2024-01-06T08:16:35;1.67;;;1.58;;
20065;SDS011;10193;48.884;9.182;2024-01-06T08:19:02;1.98;;;1.75;;
20065;SDS011;10193;48.884;9.182;2024-01-06T08:21:29;2.10;;;2.00;;
20065;SDS011;10193;48.884;9.182;2024-01-06T08:23:57;1.55;;;1.45;;
20065;SDS011;10193;48.884;9.182;2024-01-06T08:26:23;1.65;;;1.55;;
20065;SDS011;10193;48.884;9.182;2024-01-06T08:28:50;1.63;;;1.52;;
20065;SDS011;10193;48.884;9.182;2024-01-06T08:31:17;1.50;;;1.40;;
20065;SDS011;10193;48.884;9.182;2024-01-06T08:33:44;1.35;;;1.30;;
20065;SDS011;10193;48.884;9.182;2024-01-06T08:36:10;2.33;;;1.55;;
20065;SDS011;10193;48.884;9.182;2024-01-06T08:38:37;1.70;;;1.60;;
20065;SDS011;10193;48.884;9.182;2024-01-06T08:41:05;1.80;;;1.70;;
20065;SDS011;10193;48.884;9.182;2024-01-06T08:43:32;1.80;;;1.70;;
20065;SDS011;10193;48.884;9.182;2024-01-06T08:45:59;1.92;;;1.83;;
20065;SDS011;10193;48.884;9.182;2024-01-06T08:48:26;2.35;;;1.75;;
20065;SDS011;10193;48.884;9.182;2024-01-06T08:50:52;2.08;;;1.88;;
20065;SDS011;10193;48.884;9.182;2024-01-06T08:53:19;1.60;;;1.50;;
20065;SDS011;10193;48.884;9.182;2024-01-06T08:55:45;1.75;;;1.60;;
20065;SDS011;10193;48.884;9.182;2024-01-06T08:58:13;1.60;;;1.50;;
20065;SDS011;10193;48.884;9.182;2024-01-06T09:00:40;2.03;;;1.70;;
20065;SDS011;10193;48.884;9.182;2024-01-06T09:03:07;1.50;;;1.40;;
20065;SDS011;10193;48.884;9.182;2024-01-06T09:05:34;1.52;;;1.42;;
20065;SDS011;10193;48.884;9.182;2024-01-06T09:08:01;1.90;;;1.80;;
20065;SDS011;10193;48.884;9.182;2024-01-06T09:10:28;1.77;;;1.67;;
20065;SDS011;10193;48.884;9.182;2024-01-06T09:12:55;1.60;;;1.50;;
20065;SDS011;10193;48.884;9.182;2024-01-06T09:15:23;1.67;;;1.58;;
20065;SDS011;10193;48.884;9.182;2024-01-06T09:17:49;1.60;;;1.50;;
20065;SDS011;10193;48.884;9.182;2024-01-06T09:20:16;1.50;;;1.40;;
20065;SDS011;10193;48.884;9.182;2024-01-06T09:22:47;1.70;;;1.60;;
20065;SDS011;10193;48.884;9.182;2024-01-06T09:25:14;1.75;;;1.65;;
20065;SDS011;10193;48.884;9.182;2024-01-06T09:27:41;1.67;;;1.40;;
20065;SDS011;10193;48.884;9.182;2024-01-06T09:30:08;1.60;;;1.50;;
20065;SDS011;10193;48.884;9.182;2024-01-06T09:32:36;2.30;;;1.52;;
20065;SDS011;10193;48.884;9.182;2024-01-06T09:35:03;1.30;;;1.30;;
20065;SDS011;10193;48.884;9.182;2024-01-06T09:37:30;1.40;;;1.40;;
20065;SDS011;10193;48.884;9.182;2024-01-06T09:39:57;1.63;;;1.52;;
20065;SDS011;10193;48.884;9.182;2024-01-06T09:42:24;1.65;;;1.55;;
20065;SDS011;10193;48.884;9.182;2024-01-06T09:44:51;1.90;;;1.80;;
20065;SDS011;10193;48.884;9.182;2024-01-06T09:47:18;1.83;;;1.73;;
20065;SDS011;10193;48.884;9.182;2024-01-06T09:49:49;1.23;;;1.23;;
20065;SDS011;10193;48.884;9.182;2024-01-06T09:52:19;1.50;;;1.40;;
20065;SDS011;10193;48.884;9.182;2024-01-06T09:54:49;1.30;;;1.25;;
20065;SDS011;10193;48.884;9.182;2024-01-06T09:57:18;1.83;;;1.70;;
20065;SDS011;10193;48.884;9.182;2024-01-06T09:59:45;1.80;;;1.70;;
20065;SDS011;10193;48.884;9.182;2024-01-06T10:02:13;1.67;;;1.58;;
20065;SDS011;10193;48.884;9.182;2024-01-06T10:04:41;1.65;;;1.40;;
20065;SDS011;10193;48.884;9.182;2024-01-06T10:07:09;1.48;;;1.38;;
20065;SDS011;10193;48.884;9.182;2024-01-06T10:09:38;1.65;;;1.55;;
20065;SDS011;10193;48.884;9.182;2024-01-06T10:12:06;2.00;;;1.60;;
20065;SDS011;10193;48.884;9.182;2024-01-06T10:14:33;2.20;;;1.83;;
20065;SDS011;10193;48.884;9.182;2024-01-06T10:17:00;1.70;;;1.60;;
20065;SDS011;10193;48.884;9.182;2024-01-06T10:19:26;1.85;;;1.67;;
20065;SDS011;10193;48.884;9.182;2024-01-06T10:21:53;1.92;;;1.65;;
20065;SDS011;10193;48.884;9.182;2024-01-06T10:24:22;1.60;;;1.55;;
20065;SDS011;10193;48.884;9.182;2024-01-06T10:26:49;1.70;;;1.60;;
20065;SDS011;10193;48.884;9.182;2024-01-06T10:29:16;1.88;;;1.73;;
20065;SDS011;10193;48.884;9.182;2024-01-06T10:31:42;1.70;;;1.60;;
20065;SDS011;10193;48.884;9.182;2024-01-06T10:34:09;1.67;;;1.58;;
20065;SDS011;10193;48.884;9.182;2024-01-06T10:36:35;2.05;;;1.88;;
20065;SDS011;10193;48.884;9.182;2024-01-06T10:39:02;1.75;;;1.65;;
20065;SDS011;10193;48.884;9.182;2024-01-06T10:41:30;1.52;;;1.42;;
20065;SDS011;10193;48.884;9.182;2024-01-06T10:43:58;2.47;;;1.80;;
20065;SDS011;10193;48.884;9.182;2024-01-06T10:46:27;1.90;;;1.80;;
20065;SDS011;10193;48.884;9.182;2024-01-06T10:48:55;1.63;;;1.50;;
20065;SDS011;10193;48.884;9.182;2024-01-06T10:51:24;1.73;;;1.63;;
20065;SDS011;10193;48.884;9.182;2024-01-06T10:53:52;2.00;;;1.90;;
20065;SDS011;10193;48.884;9.182;2024-01-06T10:56:19;1.95;;;1.85;;
20065;SDS011;10193;48.884;9.182;2024-01-06T10:58:49;2.10;;;1.98;;
20065;SDS011;10193;48.884;9.182;2024-01-06T11:01:19;1.92;;;1.83;;
20065;SDS011;10193;48.884;9.182;2024-01-06T11:03:49;2.50;;;2.30;;
20065;SDS011;10193;48.884;9.182;2024-01-06T11:06:16;2.30;;;2.10;;
20065;SDS011;10193;48.884;9.182;2024-01-06T11:08:46;2.28;;;2.08;;
20065;SDS011;10193;48.884;9.182;2024-01-06T11:11:17;2.72;;;1.90;;
20065;SDS011;10193;48.884;9.182;2024-01-06T11:13:45;2.10;;;2.00;;
20065;SDS011;10193;48.884;9.182;2024-01-06T11:16:13;2.40;;;2.20;;
20065;SDS011;10193;48.884;9.182;2024-01-06T11:18:59;2.50;;;2.30;;
20065;SDS011;10193;48.884;9.182;2024-01-06T11:21:26;2.30;;;2.20;;
20065;SDS011;10193;48.884;9.182;2024-01-06T11:24:16;2.33;;;2.20;;
20065;SDS011;10193;48.884;9.182;2024-01-06T11:26:49;2.70;;;2.50;;
20065;SDS011;10193;48.884;9.182;2024-01-06T11:29:17;2.60;;;2.40;;
20065;SDS011;10193;48.884;9.182;2024-01-06T11:31:45;3.08;;;2.88;;
20065;SDS011;10193;48.884;9.182;2024-01-06T11:34:48;2.78;;;2.58;;
20065;SDS011;10193;48.884;9.182;2024-01-06T11:37:16;2.70;;;2.50;;
20065;SDS011;10193;48.884;9.182;2024-01-06T11:39:44;2.70;;;2.50;;
20065;SDS011;10193;48.884;9.182;2024-01-06T11:42:11;3.70;;;3.40;;
20065;SDS011;10193;48.884;9.182;2024-01-06T11:44:39;2.97;;;2.78;;
20065;SDS011;10193;48.884;9.182;2024-01-06T11:47:10;2.90;;;2.70;;
20065;SDS011;10193;48.884;9.182;2024-01-06T11:49:37;3.17;;;2.50;;
20065;SDS011;10193;48.884;9.182;2024-01-06T11:52:04;2.47;;;2.30;;
20065;SDS011;10193;48.884;9.182;2024-01-06T11:54:31;2.50;;;2.30;;
20065;SDS011;10193;48.884;9.182;2024-01-06T11:56:58;2.58;;;2.38;;
20065;SDS011;10193;48.884;9.182;2024-01-06T11:59:25;2.50;;;2.30;;
20065;SDS011;10193;48.884;9.182;2024-01-06T12:01:52;2.60;;;2.40;;
20065;SDS011;10193;48.884;9.182;2024-01-06T12:04:20;2.70;;;2.50;;
20065;SDS011;10193;48.884;9.182;2024-01-06T12:06:50;2.42;;;2.28;;
20065;SDS011;10193;48.884;9.182;2024-01-06T12:09:17;2.40;;;2.20;;
20065;SDS011;10193;48.884;9.182;2024-01-06T12:11:45;2.30;;;2.20;;
20065;SDS011;10193;48.884;9.182;2024-01-06T12:14:12;2.50;;;2.40;;
20065;SDS011;10193;48.884;9.182;2024-01-06T12:16:38;2.63;;;2.50;;
20065;SDS011;10193;48.884;9.182;2024-01-06T12:19:05;2.70;;;2.50;;
20065;SDS011;10193;48.884;9.182;2024-01-06T12:21:33;2.90;;;2.70;;
20065;SDS011;10193;48.884;9.182;2024-01-06T12:24:12;2.60;;;2.40;;
20065;SDS011;10193;48.884;9.182;2024-01-06T12:26:41;2.63;;;2.42;;
20065;SDS011;10193;48.884;9.182;2024-01-06T12:29:08;2.40;;;2.20;;
20065;SDS011;10193;48.884;9.182;2024-01-06T12:31:36;3.00;;;2.80;;
20065;SDS011;10193;48.884;9.182;2024-01-06T12:34:04;3.00;;;2.80;;
20065;SDS011;10193;48.884;9.182;2024-01-06T12:39:02;2.92;;;2.72;;
20065;SDS011;10193;48.884;9.182;2024-01-06T12:41:29;3.28;;;2.97;;
20065;SDS011;10193;48.884;9.182;2024-01-06T12:43:58;3.85;;;3.05;;
20065;SDS011;10193;48.884;9.182;2024-01-06T12:46:24;3.00;;;2.80;;
20065;SDS011;10193;48.884;9.182;2024-01-06T12:48:51;3.17;;;2.88;;
20065;SDS011;10193;48.884;9.182;2024-01-06T12:51:18;3.47;;;3.17;;
20065;SDS011;10193;48.884;9.182;2024-01-06T12:53:46;3.13;;;2.92;;
20065;SDS011;10193;48.884;9.182;2024-01-06T12:56:12;3.20;;;2.90;;
20065;SDS011;10193;48.884;9.182;2024-01-06T12:58:39;3.15;;;2.90;;
20065;SDS011;10193;48.884;9.182;2024-01-06T13:01:06;3.30;;;3.10;;
20065;SDS011;10193;48.884;9.182;2024-01-06T13:03:33;3.33;;;3.03;;
20065;SDS011;10193;48.884;9.182;2024-01-06T13:05:59;3.58;;;3.10;;
20065;SDS011;10193;48.884;9.182;2024-01-06T13:08:26;3.53;;;3.33;;
20065;SDS011;10193;48.884;9.182;2024-01-06T13:10:55;3.20;;;3.00;;
20065;SDS011;10193;48.884;9.182;2024-01-06T13:13:22;2.97;;;2.78;;
20065;SDS011;10193;48.884;9.182;2024-01-06T13:15:48;3.17;;;2.90;;
20065;SDS011;10193;48.884;9.182;2024-01-06T13:18:15;4.07;;;3.40;;
20065;SDS011;10193;48.884;9.182;2024-01-06T13:20:42;3.88;;;3.47;;
20065;SDS011;10193;48.884;9.182;2024-01-06T13:23:09;3.40;;;3.20;;
20065;SDS011;10193;48.884;9.182;2024-01-06T13:25:37;3.70;;;3.40;;
20065;SDS011;10193;48.884;9.182;2024-01-06T13:28:06;3.28;;;3.03;;
20065;SDS011;10193;48.884;9.182;2024-01-06T13:30:33;3.60;;;3.30;;
20065;SDS011;10193;48.884;9.182;2024-01-06T13:33:00;4.13;;;3.40;;
20065;SDS011;10193;48.884;9.182;2024-01-06T13:35:27;3.75;;;3.35;;
20065;SDS011;10193;48.884;9.182;2024-01-06T13:37:55;3.47;;;3.17;;
20065;SDS011;10193;48.884;9.182;2024-01-06T13:40:22;3.40;;;3.10;;
20065;SDS011;10193;48.884;9.182;2024-01-06T13:42:49;3.63;;;3.33;;
20065;SDS011;10193;48.884;9.182;2024-01-06T13:45:18;3.50;;;3.20;;
20065;SDS011;10193;48.884;9.182;2024-01-06T13:47:45;3.63;;;3.33;;
20065;SDS011;10193;48.884;9.182;2024-01-06T13:50:12;3.90;;;3.60;;
20065;SDS011;10193;48.884;9.182;2024-01-06T13:52:41;3.50;;;3.20;;
20065;SDS011;10193;48.884;9.182;2024-01-06T13:55:08;2.92;;;2.72;;
20065;SDS011;10193;48.884;9.182;2024-01-06T13:57:35;3.65;;;3.30;;
20065;SDS011;10193;48.884;9.182;2024-01-06T14:00:06;3.47;;;3.03;;
20065;SDS011;10193;48.884;9.182;2024-01-06T14:02:40;3.75;;;3.42;;
20065;SDS011;10193;48.884;9.182;2024-01-06T14:05:07;3.28;;;3.08;;
20065;SDS011;10193;48.884;9.182;2024-01-06T14:07:34;4.35;;;3.50;;
20065;SDS011;10193;48.884;9.182;2024-01-06T14:10:03;3.92;;;3.53;;
20065;SDS011;10193;48.884;9.182;2024-01-06T14:12:31;3.80;;;3.50;;
20065;SDS011;10193;48.884;9.182;2024-01-06T14:14:58;3.83;;;3.40;;
20065;SDS011;10193;48.884;9.182;2024-01-06T14:17:26;3.75;;;3.45;;
20065;SDS011;10193;48.884;9.182;2024-01-06T14:19:54;3.90;;;3.60;;
20065;SDS011;10193;48.884;9.182;2024-01-06T14:22:21;3.50;;;3.20;;
20065;SDS011;10193;48.884;9.182;2024-01-06T14:24:48;3.50;;;3.20;;
20065;SDS011;10193;48.884;9.182;2024-01-06T14:27:14;3.80;;;3.50;;
20065;SDS011;10193;48.884;9.182;2024-01-06T14:29:41;3.60;;;3.30;;
20065;SDS011;10193;48.884;9.182;2024-01-06T14:32:08;3.70;;;3.40;;
20065;SDS011;10193;48.884;9.182;2024-01-06T14:34:35;3.42;;;3.22;;
20065;SDS011;10193;48.884;9.182;2024-01-06T14:37:03;3.90;;;3.55;;
20065;SDS011;10193;48.884;9.182;2024-01-06T14:39:30;3.70;;;3.40;;
20065;SDS011;10193;48.884;9.182;2024-01-06T14:41:56;3.80;;;3.50;;
20065;SDS011;10193;48.884;9.182;2024-01-06T14:44:23;3.58;;;3.28;;
20065;SDS011;10193;48.884;9.182;2024-01-06T14:46:52;4.18;;;3.63;;
20065;SDS011;10193;48.884;9.182;2024-01-06T14:49:18;3.78;;;3.47;;
20065;SDS011;10193;48.884;9.182;2024-01-06T14:51:45;3.63;;;3.33;;